Time;durP1;ratioP1;P1;durP2;ratioP2;P2;SDS_P1;SDS_P2;PMS_P1;PMS_P2;Temp;Humidity;BMP_temperature;BMP_pressure;BME280_temperature;BME280_humidity;BME280_pressure;Samples;Min_cycle;Max_cycle;Signal;HPM_P1;HPM_P2
2021/07/03 00:01:19;;;;;;;0.40;0.40;;;15.80;99.90;;;;;;5072002;28;20032;-74
2021/07/03 00:03:45;;;;;;;0.10;0.10;;;15.80;99.90;;;;;;5053990;28;20114;-74
2021/07/03 00:06:10;;;;;;;0.22;0.22;;;15.70;99.90;;;;;;5071912;28;20032;-73
2021/07/03 00:08:36;;;;;;;1.83;1.02;;;15.70;99.90;;;;;;5053923;28;20135;-75
2021/07/03 00:11:05;;;;;;;2.63;1.55;;;15.60;99.90;;;;;;5071867;28;20021;-74
2021/07/03 00:13:31;;;;;;;4.60;1.80;;;15.30;99.90;;;;;;5071816;28;20028;-73
2021/07/03 00:15:57;;;;;;;7.32;1.67;;;15.20;99.90;;;;;;5071857;28;20019;-74
2021/07/03 00:18:23;;;;;;;0.65;0.65;;;15.10;99.90;;;;;;5053996;28;20023;-73
2021/07/03 00:20:49;;;;;;;0.32;0.28;;;15.00;99.90;;;;;;5071744;28;20017;-73
2021/07/03 00:23:16;;;;;;;0.10;0.10;;;14.90;99.90;;;;;;5053855;28;20025;-74
2021/07/03 00:25:42;;;;;;;0.20;0.20;;;15.00;99.90;;;;;;5071809;28;20096;-75
2021/07/03 00:28:08;;;;;;;7.90;1.42;;;15.30;99.90;;;;;;5071707;28;20444;-74
2021/07/03 00:30:34;;;;;;;0.55;0.43;;;15.40;99.90;;;;;;5037431;28;20094;-74
2021/07/03 00:32:59;;;;;;;0.10;0.10;;;15.30;99.90;;;;;;5053854;28;20496;-74
2021/07/03 00:35:25;;;;;;;0.35;0.35;;;15.50;99.90;;;;;;5053465;28;20425;-74
2021/07/03 00:37:51;;;;;;;0.17;0.17;;;15.70;99.90;;;;;;5071606;28;20025;-74
2021/07/03 00:40:17;;;;;;;0.10;0.10;;;15.70;99.90;;;;;;5053647;28;20070;-75
2021/07/03 00:42:43;;;;;;;0.13;0.10;;;15.80;99.90;;;;;;5071504;28;20499;-75
2021/07/03 00:45:10;;;;;;;2.10;1.00;;;15.80;99.90;;;;;;5071530;28;20061;-74
2021/07/03 00:47:36;;;;;;;0.38;0.38;;;15.70;99.90;;;;;;5053519;28;20028;-75
2021/07/03 00:50:04;;;;;;;0.10;0.10;;;15.70;99.90;;;;;;5071446;28;20017;-74
2021/07/03 00:52:30;;;;;;;1.10;1.05;;;15.70;99.90;;;;;;5071456;28;20480;-74
2021/07/03 00:54:56;;;;;;;0.28;0.28;;;15.60;99.90;;;;;;5055571;28;20039;-74
2021/07/03 00:57:22;;;;;;;0.10;0.10;;;15.40;99.90;;;;;;5075138;28;20472;-74
2021/07/03 00:59:48;;;;;;;0.10;0.10;;;15.50;99.90;;;;;;5075152;28;20475;-74
2021/07/03 01:02:16;;;;;;;0.20;0.20;;;15.50;99.90;;;;;;5057205;28;20112;-74
2021/07/03 01:04:43;;;;;;;25.17;1.27;;;15.60;99.90;;;;;;5075242;28;20017;-74
2021/07/03 01:07:10;;;;;;;2.40;1.42;;;15.50;99.90;;;;;;5056965;28;20434;-74
2021/07/03 01:09:36;;;;;;;1.17;0.80;;;15.10;99.90;;;;;;5074876;28;20064;-73
2021/07/03 01:12:02;;;;;;;0.52;0.52;;;14.80;99.90;;;;;;5056828;28;20518;-73
2021/07/03 01:14:28;;;;;;;3.63;2.25;;;14.70;99.90;;;;;;5074926;28;20025;-74
2021/07/03 01:16:54;;;;;;;6.35;0.77;;;14.50;99.90;;;;;;5074785;28;20028;-74
2021/07/03 01:19:20;;;;;;;0.50;0.47;;;14.30;99.90;;;;;;5074761;28;20032;-74
2021/07/03 01:21:50;;;;;;;0.40;0.40;;;14.30;99.90;;;;;;5074774;28;20020;-74
2021/07/03 01:24:16;;;;;;;2.95;1.77;;;14.30;99.90;;;;;;5056885;28;20044;-73
2021/07/03 01:26:48;;;;;;;0.30;0.30;;;14.40;99.90;;;;;;5074680;28;20048;-74
2021/07/03 01:29:15;;;;;;;;;;;14.40;99.90;;;;;;5074935;28;20028;-74
2021/07/03 01:31:42;;;;;;;0.10;0.10;;;14.60;99.90;;;;;;5074547;28;20054;-74
2021/07/03 01:34:08;;;;;;;0.10;0.10;;;14.90;99.90;;;;;;5056417;28;20024;-75
2021/07/03 01:36:35;;;;;;;0.17;0.17;;;15.20;99.90;;;;;;5074377;28;20040;-74
2021/07/03 01:39:02;;;;;;;0.20;0.20;;;15.40;99.90;;;;;;5074455;28;20107;-74
2021/07/03 01:41:28;;;;;;;0.20;0.20;;;15.40;99.90;;;;;;5056449;28;20519;-74
2021/07/03 01:43:54;;;;;;;0.10;0.10;;;15.50;99.90;;;;;;5056321;28;20047;-75
2021/07/03 01:46:20;;;;;;;0.10;0.10;;;15.60;99.90;;;;;;5056531;28;20024;-74
2021/07/03 01:48:45;;;;;;;0.10;0.10;;;15.60;99.90;;;;;;5074203;28;20046;-74
2021/07/03 01:51:11;;;;;;;0.10;0.10;;;15.50;99.90;;;;;;5039636;28;20025;-74
2021/07/03 01:53:37;;;;;;;0.20;0.20;;;15.30;99.90;;;;;;5074147;28;20017;-74
2021/07/03 01:56:03;;;;;;;0.85;0.85;;;15.10;99.90;;;;;;5074139;28;20024;-73
2021/07/03 01:58:30;;;;;;;0.10;0.10;;;15.00;99.90;;;;;;5074083;28;20025;-74
2021/07/03 02:00:58;;;;;;;0.25;0.25;;;14.90;99.90;;;;;;5074115;28;20036;-74
2021/07/03 02:03:24;;;;;;;0.63;0.63;;;15.10;99.90;;;;;;5073977;28;20479;-74
2021/07/03 02:05:51;;;;;;;0.10;0.10;;;15.10;99.90;;;;;;5055102;28;20078;-75
2021/07/03 02:08:17;;;;;;;0.10;0.10;;;15.20;99.90;;;;;;5055899;28;20387;-74
2021/07/03 02:10:43;;;;;;;0.20;0.20;;;15.10;99.90;;;;;;5055881;28;20025;-74
2021/07/03 02:13:09;;;;;;;0.55;0.55;;;15.10;99.90;;;;;;5073779;28;20092;-74
2021/07/03 02:15:35;;;;;;;0.40;0.40;;;14.80;99.90;;;;;;5073799;28;20026;-74
2021/07/03 02:18:01;;;;;;;0.20;0.20;;;14.40;99.90;;;;;;5073690;28;20100;-73
2021/07/03 02:20:27;;;;;;;0.20;0.20;;;14.20;99.90;;;;;;5039213;28;20024;-73
2021/07/03 02:22:54;;;;;;;0.20;0.20;;;14.10;99.90;;;;;;5073574;28;20395;-74
2021/07/03 02:25:20;;;;;;;0.40;0.40;;;14.00;99.90;;;;;;5073539;28;20056;-74
2021/07/03 02:27:46;;;;;;;0.88;0.65;;;13.90;99.90;;;;;;5073439;28;20032;-74
2021/07/03 02:30:15;;;;;;;0.10;0.10;;;14.00;99.90;;;;;;5073397;28;20025;-74
2021/07/03 02:32:41;;;;;;;0.20;0.20;;;14.00;99.90;;;;;;5055412;28;20392;-74
2021/07/03 02:35:08;;;;;;;0.10;0.10;;;14.00;99.90;;;;;;5055427;28;20318;-74
2021/07/03 02:37:36;;;;;;;0.45;0.45;;;14.10;99.90;;;;;;5055372;28;20515;-74
2021/07/03 02:40:05;;;;;;;1.10;1.08;;;13.90;99.90;;;;;;5073280;28;20028;-74
2021/07/03 02:42:31;;;;;;;0.10;0.10;;;13.90;99.90;;;;;;5073095;28;20036;-74
2021/07/03 02:44:57;;;;;;;0.10;0.10;;;13.90;99.90;;;;;;5055371;28;20028;-74
2021/07/03 02:47:22;;;;;;;0.20;0.20;;;14.00;99.90;;;;;;5038564;28;20102;-74
2021/07/03 02:49:48;;;;;;;0.20;0.20;;;14.00;99.90;;;;;;5072969;28;20028;-74
2021/07/03 02:52:14;;;;;;;0.20;0.20;;;14.00;99.90;;;;;;5055112;28;20017;-74
2021/07/03 02:54:40;;;;;;;0.85;0.73;;;13.90;99.90;;;;;;5055091;28;20374;-74
2021/07/03 02:57:06;;;;;;;0.57;0.57;;;13.70;99.90;;;;;;5054893;28;20020;-74
2021/07/03 02:59:31;;;;;;;3.38;1.40;;;13.90;99.90;;;;;;5072842;28;20488;-73
2021/07/03 03:01:57;;;;;;;0.85;0.50;;;13.70;99.90;;;;;;5054724;28;20158;-74
2021/07/03 03:04:23;;;;;;;0.73;0.73;;;13.40;99.90;;;;;;5072765;28;20024;-74
2021/07/03 03:06:49;;;;;;;0.30;0.30;;;13.20;99.90;;;;;;5054802;28;20063;-73
2021/07/03 03:09:15;;;;;;;0.98;0.82;;;13.10;99.90;;;;;;5072532;28;20039;-74
2021/07/03 03:11:41;;;;;;;0.10;0.10;;;13.20;99.90;;;;;;5054868;28;20493;-74
2021/07/03 03:14:07;;;;;;;1.05;0.50;;;13.30;99.90;;;;;;5072571;28;20095;-74
2021/07/03 03:16:33;;;;;;;0.13;0.13;;;13.50;99.90;;;;;;5054907;28;20024;-75
2021/07/03 03:18:59;;;;;;;0.43;0.43;;;13.60;99.90;;;;;;5054967;28;20020;-74
2021/07/03 03:21:25;;;;;;;0.47;0.47;;;13.60;99.90;;;;;;5054665;28;20032;-74
2021/07/03 03:23:50;;;;;;;0.32;0.32;;;13.60;99.90;;;;;;5072427;28;20240;-74
2021/07/03 03:26:16;;;;;;;0.10;0.10;;;13.60;99.90;;;;;;5054543;28;20029;-73
2021/07/03 03:28:42;;;;;;;1.50;1.30;;;13.60;99.90;;;;;;5072297;28;20377;-73
2021/07/03 03:31:08;;;;;;;2.20;1.77;;;13.50;99.90;;;;;;5072386;28;20407;-74
2021/07/03 03:33:34;;;;;;;0.47;0.47;;;13.30;99.90;;;;;;5054243;28;20029;-74
2021/07/03 03:36:00;;;;;;;3.60;0.90;;;13.30;99.90;;;;;;5083258;22;20070;-72
2021/07/03 03:38:26;;;;;;;0.63;0.38;;;13.30;99.90;;;;;;5051687;28;20025;-72
2021/07/03 03:40:52;;;;;;;0.75;0.75;;;13.30;99.90;;;;;;5033156;28;20052;-72
2021/07/03 03:43:17;;;;;;;0.50;0.50;;;13.20;99.90;;;;;;5034264;28;20013;-72
2021/07/03 03:45:43;;;;;;;0.43;0.43;;;13.10;99.90;;;;;;5051929;28;20028;-72
2021/07/03 03:48:09;;;;;;;1.33;1.00;;;13.10;99.90;;;;;;5033886;28;20361;-72
2021/07/03 03:50:36;;;;;;;0.52;0.52;;;13.20;99.90;;;;;;5051910;28;20055;-72
2021/07/03 03:53:03;;;;;;;1.30;1.20;;;13.20;99.90;;;;;;5034119;28;20025;-72
2021/07/03 03:55:29;;;;;;;0.75;0.40;;;13.20;99.90;;;;;;5051816;28;20025;-72
2021/07/03 03:57:55;;;;;;;0.28;0.28;;;13.20;99.90;;;;;;5033790;28;20025;-72
2021/07/03 04:00:21;;;;;;;0.20;0.20;;;13.20;99.90;;;;;;5033824;28;20029;-71
2021/07/03 04:02:47;;;;;;;0.75;0.75;;;13.40;99.90;;;;;;5051773;28;20472;-71
2021/07/03 04:05:14;;;;;;;1.08;1.00;;;13.50;99.90;;;;;;5033958;28;20037;-72
2021/07/03 04:07:40;;;;;;;0.20;0.20;;;13.50;99.90;;;;;;5051620;28;20029;-72
2021/07/03 04:10:08;;;;;;;2.47;0.77;;;13.60;99.90;;;;;;5033865;28;20605;-72
2021/07/03 04:12:35;;;;;;;1.90;1.80;;;13.70;99.90;;;;;;5051596;28;20024;-72
2021/07/03 04:15:01;;;;;;;1.48;0.45;;;13.60;99.90;;;;;;5051705;28;20017;-72
2021/07/03 04:17:27;;;;;;;0.25;0.25;;;13.60;99.90;;;;;;5051441;28;20029;-72
2021/07/03 04:19:53;;;;;;;1.65;1.55;;;13.60;99.90;;;;;;5051599;28;20044;-72
2021/07/03 04:22:19;;;;;;;3.40;1.27;;;13.80;99.90;;;;;;5051534;28;20033;-72
2021/07/03 04:24:45;;;;;;;0.80;0.55;;;13.90;99.90;;;;;;5051642;28;20099;-72
2021/07/03 04:27:12;;;;;;;0.20;0.20;;;13.80;99.90;;;;;;5051571;28;20068;-72
2021/07/03 04:29:37;;;;;;;0.35;0.35;;;13.90;99.90;;;;;;5035159;28;20230;-72
2021/07/03 04:32:04;;;;;;;2.30;0.75;;;14.00;99.90;;;;;;5055426;28;20116;-72
2021/07/03 04:34:29;;;;;;;0.95;0.95;;;14.20;99.90;;;;;;5055712;28;20032;-72
2021/07/03 04:36:56;;;;;;;0.57;0.57;;;14.40;99.90;;;;;;5037454;28;20435;-72
2021/07/03 04:39:22;;;;;;;1.17;0.90;;;14.40;99.90;;;;;;5037328;28;20033;-72
2021/07/03 04:41:49;;;;;;;1.55;1.00;;;14.20;99.90;;;;;;5055319;28;20022;-72
2021/07/03 04:44:16;;;;;;;0.20;0.20;;;14.00;99.90;;;;;;5037388;28;20484;-72
2021/07/03 04:46:42;;;;;;;0.45;0.45;;;14.10;99.90;;;;;;5037353;28;20021;-72
2021/07/03 04:49:08;;;;;;;2.85;2.10;;;14.20;99.90;;;;;;5055021;28;20040;-72
2021/07/03 04:51:35;;;;;;;2.92;1.35;;;14.30;99.90;;;;;;5020761;28;20025;-72
2021/07/03 04:54:00;;;;;;;2.00;0.95;;;14.10;99.90;;;;;;5055136;28;20043;-72
2021/07/03 04:56:26;;;;;;;28.17;6.22;;;14.00;99.90;;;;;;5037303;28;20025;-72
2021/07/03 04:58:52;;;;;;;1.98;0.68;;;14.10;99.90;;;;;;5020536;28;20021;-71
2021/07/03 05:01:18;;;;;;;0.10;0.10;;;14.10;99.90;;;;;;5055025;28;20028;-72
2021/07/03 05:03:44;;;;;;;0.20;0.20;;;14.20;99.90;;;;;;5037192;28;20044;-72
2021/07/03 05:06:09;;;;;;;0.20;0.20;;;14.40;99.90;;;;;;5054906;28;20051;-72
2021/07/03 05:08:35;;;;;;;4.13;0.85;;;14.60;99.90;;;;;;5036815;28;20100;-72
2021/07/03 05:11:01;;;;;;;0.22;0.22;;;14.50;99.90;;;;;;5037034;28;20395;-72
2021/07/03 05:13:27;;;;;;;0.30;0.30;;;14.50;99.90;;;;;;5037061;28;20032;-72
2021/07/03 05:15:53;;;;;;;0.68;0.68;;;14.40;99.90;;;;;;5054686;28;20385;-72
2021/07/03 05:18:19;;;;;;;1.85;1.75;;;14.40;99.90;;;;;;5054575;28;20028;-72
2021/07/03 05:20:44;;;;;;;2.17;1.52;;;14.40;99.90;;;;;;5054572;28;20029;-72
2021/07/03 05:23:10;;;;;;;2.42;1.17;;;14.30;99.90;;;;;;5036710;28;20021;-72
2021/07/03 05:25:36;;;;;;;10.85;2.60;;;14.30;99.90;;;;;;5036572;28;20391;-72
2021/07/03 05:28:02;;;;;;;0.40;0.40;;;14.40;99.90;;;;;;5036633;28;20077;-72
2021/07/03 05:30:27;;;;;;;1.23;0.82;;;14.50;99.90;;;;;;5054411;28;20365;-72
2021/07/03 05:32:53;;;;;;;1.30;1.20;;;14.70;99.90;;;;;;5020043;28;20024;-72
2021/07/03 05:35:19;;;;;;;2.80;1.45;;;14.70;99.90;;;;;;5036551;28;20547;-72
2021/07/03 05:37:45;;;;;;;0.17;0.17;;;14.90;99.90;;;;;;5036173;28;20068;-71
2021/07/03 05:40:12;;;;;;;1.73;1.15;;;15.10;99.90;;;;;;5035792;28;20120;-72
2021/07/03 05:42:39;;;;;;;3.42;1.67;;;15.40;99.90;;;;;;5053619;28;20035;-72
2021/07/03 05:45:06;;;;;;;1.15;1.00;;;15.50;99.90;;;;;;5036350;28;20025;-72
2021/07/03 05:47:32;;;;;;;0.10;0.10;;;15.50;99.90;;;;;;5036053;28;20024;-72
2021/07/03 05:49:58;;;;;;;0.30;0.30;;;15.70;99.90;;;;;;5053946;28;20031;-72
2021/07/03 05:52:23;;;;;;;2.75;0.88;;;16.00;99.90;;;;;;5054025;28;20017;-72
2021/07/03 05:54:49;;;;;;;0.10;0.10;;;16.10;99.90;;;;;;5036088;28;20021;-72
2021/07/03 05:57:15;;;;;;;0.15;0.15;;;16.10;99.90;;;;;;5053832;28;20028;-72
2021/07/03 05:59:41;;;;;;;0.55;0.38;;;16.40;99.90;;;;;;5053767;28;20094;-71
2021/07/03 06:02:10;;;;;;;0.25;0.25;;;16.50;99.90;;;;;;5036286;28;20496;-72
2021/07/03 06:04:35;;;;;;;2.08;0.73;;;16.50;99.90;;;;;;5035877;28;20029;-72
2021/07/03 06:07:02;;;;;;;0.47;0.47;;;16.60;99.90;;;;;;5053353;28;20546;-71
2021/07/03 06:09:28;;;;;;;0.20;0.20;;;16.70;99.90;;;;;;5053671;28;20021;-72
2021/07/03 06:11:53;;;;;;;0.10;0.10;;;16.90;99.90;;;;;;5035691;28;20469;-72
2021/07/03 06:14:19;;;;;;;0.10;0.10;;;17.00;99.90;;;;;;5053622;28;20032;-72
2021/07/03 06:16:45;;;;;;;0.32;0.32;;;17.20;99.90;;;;;;5035748;28;20020;-72
2021/07/03 06:19:11;;;;;;;0.20;0.15;;;17.30;99.90;;;;;;5035547;28;20048;-72
2021/07/03 06:21:37;;;;;;;0.10;0.10;;;17.50;99.90;;;;;;5053239;28;20025;-72
2021/07/03 06:24:03;;;;;;;0.00;0.00;;;17.70;99.90;;;;;;5053276;28;20020;-72
2021/07/03 06:26:29;;;;;;;2.42;1.33;;;17.90;99.90;;;;;;5053405;28;20033;-72
2021/07/03 06:28:55;;;;;;;0.15;0.15;;;18.00;99.90;;;;;;5053103;28;20389;-72
2021/07/03 06:31:21;;;;;;;0.17;0.17;;;18.10;99.90;;;;;;5053261;28;20433;-72
2021/07/03 06:33:46;;;;;;;0.10;0.10;;;18.20;99.90;;;;;;5035196;28;20178;-72
2021/07/03 06:36:12;;;;;;;0.10;0.10;;;18.30;99.90;;;;;;5035334;28;20148;-72
2021/07/03 06:38:38;;;;;;;0.10;0.10;;;18.50;99.90;;;;;;5035088;28;20078;-72
2021/07/03 06:41:04;;;;;;;0.03;0.03;;;18.60;99.90;;;;;;5053404;28;20088;-70
2021/07/03 06:43:30;;;;;;;0.10;0.10;;;18.70;99.90;;;;;;5052891;28;20031;-70
2021/07/03 06:45:55;;;;;;;0.10;0.10;;;18.90;99.90;;;;;;5053066;28;20187;-71
2021/07/03 06:48:21;;;;;;;0.00;0.00;;;19.20;98.60;;;;;;5052741;28;20021;-72
2021/07/03 06:50:47;;;;;;;0.10;0.10;;;19.40;97.20;;;;;;5052796;28;20059;-72
2021/07/03 06:53:13;;;;;;;0.10;0.10;;;19.60;95.20;;;;;;5034510;28;20051;-72
2021/07/03 06:55:39;;;;;;;0.10;0.10;;;19.70;93.40;;;;;;5035066;28;20032;-70
2021/07/03 06:58:05;;;;;;;0.10;0.10;;;19.70;93.00;;;;;;5034715;28;20025;-70
2021/07/03 07:00:31;;;;;;;0.10;0.10;;;19.60;91.50;;;;;;5052791;28;20024;-70
2021/07/03 07:02:57;;;;;;;0.10;0.10;;;19.80;92.00;;;;;;5034757;28;20527;-70
2021/07/03 07:05:23;;;;;;;0.00;0.00;;;19.90;91.80;;;;;;5052390;28;20021;-73
2021/07/03 07:07:49;;;;;;;0.10;0.10;;;20.00;89.60;;;;;;5052403;28;20100;-72
2021/07/03 07:10:14;;;;;;;0.10;0.10;;;20.30;89.50;;;;;;5018157;28;20083;-73
2021/07/03 07:12:40;;;;;;;0.10;0.10;;;20.40;83.50;;;;;;5052355;28;20663;-73
2021/07/03 07:15:07;;;;;;;0.00;0.00;;;20.50;85.30;;;;;;5018148;28;20032;-73
2021/07/03 07:17:32;;;;;;;0.32;0.20;;;20.60;83.60;;;;;;5018040;28;20200;-72
2021/07/03 07:19:58;;;;;;;0.10;0.10;;;20.50;78.10;;;;;;5052402;28;20100;-73
2021/07/03 07:22:24;;;;;;;0.10;0.10;;;20.60;78.20;;;;;;5052363;28;20067;-72
2021/07/03 07:24:50;;;;;;;0.10;0.10;;;20.70;77.50;;;;;;5052387;28;20410;-73
2021/07/03 07:27:15;;;;;;;0.10;0.10;;;20.90;74.10;;;;;;5052196;28;20035;-72
2021/07/03 07:29:56;;;;;;;0.43;0.40;;;21.00;72.60;;;;;;5051268;28;20056;-72
2021/07/03 07:32:22;;;;;;;0.08;0.08;;;21.20;71.20;;;;;;5052314;28;20029;-73
2021/07/03 07:34:49;;;;;;;0.00;0.00;;;21.20;71.80;;;;;;5052406;28;20391;-73
2021/07/03 07:37:15;;;;;;;0.10;0.10;;;21.20;69.60;;;;;;5034037;28;20432;-71
2021/07/03 07:39:41;;;;;;;0.00;0.00;;;21.20;70.20;;;;;;5052123;28;20107;-71
2021/07/03 07:42:06;;;;;;;0.10;0.10;;;21.20;69.50;;;;;;5052090;28;20037;-71
2021/07/03 07:44:32;;;;;;;0.10;0.10;;;21.30;68.30;;;;;;5052172;28;20425;-73
2021/07/03 07:46:58;;;;;;;1.15;0.43;;;21.30;70.40;;;;;;5017626;28;20029;-71
2021/07/03 07:49:24;;;;;;;0.00;0.00;;;21.50;68.20;;;;;;5051727;28;20058;-71
2021/07/03 07:51:49;;;;;;;0.00;0.00;;;21.70;67.90;;;;;;5033953;28;20017;-71
2021/07/03 07:54:15;;;;;;;0.73;0.40;;;21.80;68.00;;;;;;5033426;28;20021;-71
2021/07/03 07:56:41;;;;;;;0.73;0.73;;;21.90;67.70;;;;;;5049451;28;20025;-71
2021/07/03 07:59:07;;;;;;;0.00;0.00;;;21.80;67.80;;;;;;5050762;28;20033;-72
2021/07/03 08:01:32;;;;;;;1.25;1.20;;;22.00;68.10;;;;;;5031785;28;20073;-71
2021/07/03 08:03:58;;;;;;;0.10;0.10;;;22.20;67.50;;;;;;5029928;28;20025;-71
2021/07/03 08:06:24;;;;;;;0.00;0.00;;;22.30;67.00;;;;;;5051274;28;20476;-71
2021/07/03 08:08:50;;;;;;;0.40;0.40;;;22.00;65.70;;;;;;5051519;28;20032;-72
2021/07/03 08:11:16;;;;;;;0.00;0.00;;;22.20;66.00;;;;;;5050242;28;20024;-71
2021/07/03 08:13:42;;;;;;;0.30;0.30;;;22.40;66.30;;;;;;5031766;28;20390;-71
2021/07/03 08:16:07;;;;;;;0.40;0.28;;;22.40;65.90;;;;;;5050482;28;20029;-71
2021/07/03 08:18:33;;;;;;;0.00;0.00;;;22.60;65.50;;;;;;5050438;28;20025;-74
2021/07/03 08:20:59;;;;;;;5.15;4.20;;;22.60;65.10;;;;;;5016196;28;20369;-74
2021/07/03 08:23:25;;;;;;;0.00;0.00;;;22.80;65.90;;;;;;5033453;28;20380;-74
2021/07/03 08:25:51;;;;;;;0.00;0.00;;;22.90;64.30;;;;;;5051629;28;20033;-74
2021/07/03 08:28:17;;;;;;;0.25;0.25;;;22.70;65.30;;;;;;5051558;28;20032;-74
2021/07/03 08:30:42;;;;;;;0.30;0.30;;;22.90;64.80;;;;;;5051612;28;20120;-74
2021/07/03 08:33:08;;;;;;;1.45;0.57;;;23.10;63.50;;;;;;5051418;28;20073;-74
2021/07/03 08:35:34;;;;;;;0.00;0.00;;;23.10;61.70;;;;;;5033650;28;20025;-75
2021/07/03 08:38:00;;;;;;;0.10;0.10;;;23.00;64.00;;;;;;5016866;28;20036;-75
2021/07/03 08:40:25;;;;;;;0.00;0.00;;;23.20;61.80;;;;;;5051444;28;20473;-74
2021/07/03 08:42:51;;;;;;;0.30;0.30;;;23.40;62.10;;;;;;5051389;28;20100;-74
2021/07/03 08:45:17;;;;;;;1.15;0.60;;;23.50;62.60;;;;;;5033498;28;20029;-74
2021/07/03 08:47:45;;;;;;;0.00;0.00;;;23.60;61.60;;;;;;5033335;28;20060;-74
2021/07/03 08:50:14;;;;;;;0.30;0.30;;;23.70;59.70;;;;;;5051365;28;20078;-74
2021/07/03 08:52:39;;;;;;;0.00;0.00;;;23.50;58.80;;;;;;5033306;28;20026;-74
2021/07/03 08:55:05;;;;;;;0.10;0.10;;;23.50;60.50;;;;;;5051273;28;20029;-74
2021/07/03 08:57:41;;;;;;;0.93;0.45;;;23.40;59.90;;;;;;5033107;28;20052;-74
2021/07/03 09:00:07;;;;;;;0.00;0.00;;;23.60;61.00;;;;;;5051296;28;20029;-74
2021/07/03 09:02:42;;;;;;;2.25;0.52;;;23.90;60.30;;;;;;5051188;28;20030;-75
2021/07/03 09:05:28;;;;;;;2.95;1.35;;;23.90;59.40;;;;;;5033094;28;20112;-74
2021/07/03 09:08:03;;;;;;;0.00;0.00;;;24.10;58.30;;;;;;5051016;28;20103;-74
2021/07/03 09:10:30;;;;;;;2.72;1.45;;;24.00;58.80;;;;;;5033267;28;20486;-73
2021/07/03 09:13:00;;;;;;;0.35;0.20;;;24.10;58.20;;;;;;5051210;28;20168;-74
2021/07/03 09:15:28;;;;;;;0.00;0.00;;;24.10;58.70;;;;;;5034687;28;20021;-74
2021/07/03 09:17:55;;;;;;;0.10;0.10;;;24.30;58.90;;;;;;5019127;28;20028;-72
2021/07/03 09:20:35;;;;;;;0.00;0.00;;;24.50;57.50;;;;;;5053466;28;20032;-72
2021/07/03 09:23:07;;;;;;;1.23;0.60;;;24.70;58.20;;;;;;5023595;28;20044;-71
2021/07/03 09:25:33;;;;;;;;;;;24.50;58.40;;;;;;5054956;28;20028;-72
2021/07/03 09:28:14;;;;;;;0.30;0.10;;;24.20;55.50;;;;;;5035953;28;20003;-71
2021/07/03 09:30:42;;;;;;;0.10;0.10;;;24.10;56.40;;;;;;5052541;28;20042;-71
2021/07/03 09:33:08;;;;;;;0.15;0.15;;;24.10;56.60;;;;;;5034370;28;20063;-71
2021/07/03 09:35:34;;;;;;;0.10;0.10;;;24.00;56.80;;;;;;5052538;28;20479;-71
2021/07/03 09:38:05;;;;;;;0.20;0.20;;;24.50;56.70;;;;;;5053959;28;20057;-73
2021/07/03 09:40:36;;;;;;;0.10;0.10;;;24.90;55.20;;;;;;5036676;28;20114;-72
2021/07/03 09:43:04;;;;;;;0.68;0.60;;;25.30;56.10;;;;;;5054158;28;20022;-71
2021/07/03 09:45:30;;;;;;;0.17;0.10;;;25.50;53.50;;;;;;5054018;28;20021;-71
2021/07/03 09:48:07;;;;;;;0.45;0.40;;;25.50;53.30;;;;;;5036014;28;20036;-71
2021/07/03 09:50:33;;;;;;;0.20;0.10;;;25.50;52.90;;;;;;5054134;28;20086;-72
2021/07/03 09:53:01;;;;;;;0.65;0.35;;;25.80;53.70;;;;;;5053627;28;20025;-71
2021/07/03 09:55:27;;;;;;;0.45;0.20;;;25.60;53.20;;;;;;5053999;28;20021;-71
2021/07/03 09:57:53;;;;;;;0.00;0.00;;;25.70;53.60;;;;;;5053765;28;20096;-71
2021/07/03 10:00:19;;;;;;;0.00;0.00;;;26.20;54.00;;;;;;5036019;28;20052;-71
2021/07/03 10:02:45;;;;;;;0.47;0.20;;;26.70;50.80;;;;;;5036039;28;20025;-71
2021/07/03 10:05:12;;;;;;;0.10;0.10;;;26.90;49.10;;;;;;5053809;28;20079;-72
2021/07/03 10:07:42;;;;;;;14.10;1.55;;;27.00;48.30;;;;;;5053580;28;20025;-71
2021/07/03 10:10:12;;;;;;;0.00;0.00;;;27.20;48.90;;;;;;5019416;28;20416;-71
2021/07/03 10:12:42;;;;;;;0.03;0.03;;;27.10;48.00;;;;;;5053638;28;20408;-71
2021/07/03 10:15:09;;;;;;;0.00;0.00;;;26.80;47.50;;;;;;5053826;28;20021;-71
2021/07/03 10:17:36;;;;;;;1.00;0.45;;;27.00;49.20;;;;;;5053363;28;20021;-71
2021/07/03 10:20:13;;;;;;;1.85;1.75;;;27.30;47.50;;;;;;5053654;28;20025;-72
2021/07/03 10:22:39;;;;;;;0.38;0.38;;;27.50;47.40;;;;;;5053546;28;20028;-71
2021/07/03 10:25:13;;;;;;;0.20;0.20;;;27.30;47.50;;;;;;5053545;28;20032;-71
2021/07/03 10:27:54;;;;;;;0.55;0.47;;;27.00;48.60;;;;;;5034631;28;20063;-71
2021/07/03 10:30:24;;;;;;;0.05;0.05;;;27.10;48.10;;;;;;5053322;28;20036;-72
2021/07/03 10:32:55;;;;;;;1.27;1.13;;;27.30;48.30;;;;;;5053283;28;20049;-71
2021/07/03 10:35:22;;;;;;;0.30;0.30;;;27.70;47.00;;;;;;5053355;28;20029;-72
2021/07/03 10:37:49;;;;;;;0.00;0.00;;;27.60;46.90;;;;;;5052987;28;20052;-72
2021/07/03 10:40:18;;;;;;;0.77;0.65;;;27.70;46.70;;;;;;5035396;28;20025;-72
2021/07/03 10:42:45;;;;;;;1.55;1.15;;;28.00;46.40;;;;;;5053060;28;20029;-71
2021/07/03 10:45:15;;;;;;;0.30;0.30;;;27.90;46.10;;;;;;5035329;28;20028;-71
2021/07/03 10:47:42;;;;;;;1.03;1.00;;;28.00;47.00;;;;;;5034882;28;20029;-71
2021/07/03 10:50:29;;;;;;;0.00;0.00;;;27.30;47.80;;;;;;5035046;28;20078;-71
2021/07/03 10:52:56;;;;;;;0.10;0.10;;;27.40;48.40;;;;;;5052827;28;20418;-71
2021/07/03 10:55:35;;;;;;;0.03;0.03;;;27.80;47.90;;;;;;5052875;28;20024;-71
2021/07/03 10:58:13;;;;;;;0.13;0.13;;;27.90;47.70;;;;;;5034743;28;20439;-71
2021/07/03 11:00:39;;;;;;;0.10;0.10;;;28.40;48.00;;;;;;5052782;28;20032;-71
2021/07/03 11:03:21;;;;;;;0.00;0.00;;;28.20;48.00;;;;;;5034829;28;20029;-72
2021/07/03 11:05:47;;;;;;;1.10;0.80;;;28.40;47.00;;;;;;5052799;28;20021;-72
2021/07/03 11:08:13;;;;;;;0.00;0.00;;;28.30;45.70;;;;;;5052497;28;20028;-71
2021/07/03 11:10:41;;;;;;;0.40;0.40;;;28.20;46.90;;;;;;5052472;28;20076;-71
2021/07/03 11:13:17;;;;;;;1.45;0.43;;;28.20;46.50;;;;;;5052461;28;20469;-71
2021/07/03 11:15:43;;;;;;;0.08;0.08;;;28.30;46.30;;;;;;5052742;28;20070;-71
2021/07/03 11:18:08;;;;;;;0.00;0.00;;;28.50;47.20;;;;;;5052330;28;20099;-71
2021/07/03 11:20:36;;;;;;;0.30;0.30;;;28.80;47.70;;;;;;5052476;28;20029;-72
2021/07/03 11:23:03;;;;;;;0.05;0.05;;;29.00;46.10;;;;;;5034432;28;20469;-71
2021/07/03 11:25:35;;;;;;;0.03;0.03;;;28.90;46.40;;;;;;5052807;28;20028;-71
2021/07/03 11:28:28;;;;;;;1.10;0.40;;;28.80;46.60;;;;;;5034329;28;20028;-71
2021/07/03 11:30:59;;;;;;;0.00;0.00;;;29.10;45.80;;;;;;5049233;28;20033;-72
2021/07/03 11:33:27;;;;;;;0.10;0.10;;;29.10;46.80;;;;;;5052395;28;20380;-72
2021/07/03 11:35:53;;;;;;;0.10;0.10;;;29.10;48.00;;;;;;5034400;28;20064;-72
2021/07/03 11:38:21;;;;;;;0.40;0.40;;;29.20;46.50;;;;;;5034082;28;20017;-71
2021/07/03 11:40:49;;;;;;;0.25;0.25;;;28.90;46.10;;;;;;5052210;28;20058;-72
2021/07/03 11:43:15;;;;;;;0.45;0.45;;;29.10;45.90;;;;;;5052090;28;20117;-71
2021/07/03 11:45:42;;;;;;;6.93;2.42;;;29.00;45.60;;;;;;5052194;28;20056;-71
2021/07/03 11:48:13;;;;;;;0.10;0.10;;;28.80;44.80;;;;;;5051792;28;20017;-72
2021/07/03 11:50:41;;;;;;;0.00;0.00;;;28.60;45.30;;;;;;5051833;28;20048;-72
2021/07/03 11:53:09;;;;;;;2.38;0.47;;;28.50;45.90;;;;;;5051864;28;20025;-72
2021/07/03 11:55:41;;;;;;;0.00;0.00;;;28.40;45.50;;;;;;5034222;28;20032;-71
2021/07/03 11:58:12;;;;;;;0.00;0.00;;;28.20;45.90;;;;;;5051773;28;20494;-71
2021/07/03 12:00:39;;;;;;;0.10;0.10;;;28.50;46.30;;;;;;5034022;28;20025;-71
2021/07/03 12:03:10;;;;;;;0.45;0.35;;;28.30;44.80;;;;;;5051683;28;20032;-71
2021/07/03 12:05:39;;;;;;;0.22;0.22;;;28.10;45.10;;;;;;5051813;28;20060;-71
2021/07/03 12:08:11;;;;;;;0.40;0.40;;;28.10;46.20;;;;;;5051566;28;20036;-72
2021/07/03 12:10:38;;;;;;;;;;;27.90;46.90;;;;;;5052188;28;20033;-72
2021/07/03 12:13:07;;;;;;;0.00;0.00;;;27.90;46.40;;;;;;5051867;28;19955;-72
2021/07/03 12:15:33;;;;;;;0.10;0.08;;;28.10;47.30;;;;;;5051781;28;20013;-72
2021/07/03 12:17:59;;;;;;;0.00;0.00;;;28.00;46.60;;;;;;5051521;28;20492;-71
2021/07/03 12:20:26;;;;;;;0.10;0.10;;;27.70;46.40;;;;;;5051455;28;20036;-71
2021/07/03 12:23:00;;;;;;;0.10;0.10;;;27.70;47.70;;;;;;5033804;28;20536;-71
2021/07/03 12:25:27;;;;;;;0.80;0.10;;;27.60;46.50;;;;;;5051716;28;20017;-71
2021/07/03 12:27:59;;;;;;;0.40;0.40;;;27.90;47.50;;;;;;5033758;28;20025;-71
2021/07/03 12:30:26;;;;;;;0.00;0.00;;;27.90;46.60;;;;;;5033645;28;20029;-71
2021/07/03 12:33:08;;;;;;;0.00;0.00;;;27.90;46.70;;;;;;5051462;28;20433;-71
2021/07/03 12:35:36;;;;;;;0.00;0.00;;;27.80;47.20;;;;;;5051494;28;20040;-71
2021/07/03 12:38:03;;;;;;;0.32;0.20;;;27.40;47.60;;;;;;5051272;28;20040;-71
2021/07/03 12:40:47;;;;;;;0.40;0.20;;;27.30;48.40;;;;;;5051455;28;20033;-71
2021/07/03 12:43:12;;;;;;;0.10;0.10;;;27.50;46.90;;;;;;5033612;28;20075;-71
2021/07/03 12:45:38;;;;;;;0.10;0.10;;;27.40;47.10;;;;;;5051436;28;20033;-71
2021/07/03 12:48:15;;;;;;;1.35;0.82;;;27.20;46.80;;;;;;5032933;28;20040;-71